Maersk Weymouth — VRFS9 — position and weather

sailwx.info

Track history (hours):
 
Tides and Currents Weather Stations Pressure Air Temp Water Temp Dewpoint Dewpoint Depression Visibility Wind Speed Wind Dir Waves Ship Positions

Maersk Weymouth

Last reported at 2015-May-24 02:33 UTC. Time now 2015-May-30 12:38 UTC.
Position N 38°31' W 030°29'.

Length 172 m; draft 6.2 m.

Type: Cargo ship. MMSI: 477622100.

Date/timePositionNaut miles runAvg speedWind from/ knotsBaromVisibWave heightAir tempDewpointWater temp
2015-May-24 02:33N 38°31' W 030°29'1717.0
2015-May-24 01:34N 38°37' W 030°09'1717.3
2015-May-24 00:33N 38°45' W 029°50'1717.1
2015-May-23 23:33N 38°54' W 029°31'1717.1
2015-May-23 22:33N 39°03' W 029°13'1717.3
2015-May-23 21:33N 39°12' W 028°54'1716.9
2015-May-23 20:33N 39°22' W 028°35'1716.9
2015-May-23 19:34N 39°31' W 028°17'1716.9
2015-May-23 18:33N 39°40' W 027°59'1716.8
2015-May-23 17:33N 39°48' W 027°40'2017.0
2015-May-23 16:23N 39°59' W 027°18'3917.1
2015-May-23 14:07N 40°20' W 026°35'  
Track history (hours):
 
Tides and Currents Weather Stations Pressure Air Temp Water Temp Dewpoint Dewpoint Depression Visibility Wind Speed Wind Dir Waves Ship Positions

Maersk Weymouth

Last reported at 2015-May-24 02:33 UTC. Time now 2015-May-30 12:38 UTC.
Position N 38°31' W 030°29'.

Length 172 m; draft 6.2 m.

Type: Cargo ship. MMSI: 477622100.

Date/timePositionNaut miles runAvg speedWind from/ knotsBaromVisibWave heightAir tempDewpointWater temp
2015-May-24 02:33N 38°31' W 030°29'1717.0
2015-May-24 01:34N 38°37' W 030°09'1717.3
2015-May-24 00:33N 38°45' W 029°50'1717.1
2015-May-23 23:33N 38°54' W 029°31'1717.1
2015-May-23 22:33N 39°03' W 029°13'1717.3
2015-May-23 21:33N 39°12' W 028°54'1716.9
2015-May-23 20:33N 39°22' W 028°35'1716.9
2015-May-23 19:34N 39°31' W 028°17'1716.9
2015-May-23 18:33N 39°40' W 027°59'1716.8
2015-May-23 17:33N 39°48' W 027°40'2017.0
2015-May-23 16:23N 39°59' W 027°18'3917.1
2015-May-23 14:07N 40°20' W 026°35'  

Dump ship's entire track history